Nouméa, Nouvelle-Calédonie

00:06 NCT le 01 février 2015 (GMT +1100)
Port Moselle | Change Station
CLOSE
Current Station
Stations météorologiques personnelles
Location: Nouméa, PROVINCE SUD
Altitude: 33 ft
Stations météo à proximité

Alt. 33 ft 22.28 °S, 166.44 °E | Updated 24 minutes ago

Mostly Cloudy
Nuageux
81.3 ° F
Paraît 87 ° F
N
14.0
Vent Variable Vent de ENE
Gusts 21.0 mph

Aujourd'hui
Haut(e) -- | Bas -- ° F
--% Risque de précip.
Hier
Haut(e) -- | Bas -- ° F
Precip. -- pouce
5:34 AM 6:40 PM
Lune gibbeuse croissante, 89% visible
Pression 29.56 pouce
Visibilité 6.2 Miles terrestres
Nuages Nuageux 4000 ft
Nuageux 5000 ft
Nuageux 12000 ft
indice de chaleur 87 ° F
Point de rosée 75 ° F
Humidité 80%
Précipitations 0.00 pouce
Profondeur de la couche neigeuse Non disponible.
UV 0 sur 12
Pollen Non disponible.
Qualité de l'air Non disponible.
Flu Activity Non disponible.
METAR NWWW 311300Z AUTO 00000KT 9999 BKN040/// BKN050/// BKN120/// ///CB 25/23 Q1001

More Conditions Fewer Conditions

Pression 29.56 pouce
Visibilité 6.2 Miles terrestres
Nuages Nuageux 4000 ft
Nuageux 5000 ft
Nuageux 12000 ft
indice de chaleur 87 ° F
Point de rosée 75 ° F
Humidité 80%
Précipitations 0.00 pouce
Profondeur de la couche neigeuse Non disponible.
UV 0 sur 12
Pollen Non disponible.
Qualité de l'air Non disponible.
Flu Activity Non disponible.
METAR NWWW 311300Z AUTO 00000KT 9999 BKN040/// BKN050/// BKN120/// ///CB 25/23 Q1001

More Conditions Fewer Conditions

10-Day Weather Forecast

Almanac

Astronomie

Feb. 01, 2015 Lever Coucher
Temps réel
Crépuscule civil
Crépuscule nautique
Crépuscule astronomique
Lune
Durée de lumière visible
Longueur du jour
Tomorrow will be .
, % of the Moon is Illuminated

Extrêmes aujourd'hui

Country Highs Country Lows

Community

WunderPhotos

Upload Photos

1,792,041 Photos téléchargées !

WunderBlogs® & News

Nearby

Qualité de l'air

  Qualité de l'air Indice de la qualité de l'air Polluant
Not available.

Épaisseur de neige

Station Depth Altitude

Activité sismique

Ville Distance Mag. Time & Date
Minimum magnitude displayed is 2.5.

Températures des eaux côtières

Lieu Température

Stations météo à proximité